Time;durP1;ratioP1;P1;durP2;ratioP2;P2;SDS_P1;SDS_P2;PMS_P1;PMS_P2;Temp;Humidity;BMP_temperature;BMP_pressure;BME280_temperature;BME280_humidity;BME280_pressure;Samples;Min_cycle;Max_cycle;Signal;HPM_P1;HPM_P2
2022/08/12 00:44:27;;;;;;;2.50;1.40;;;;;;;28.03;39.92;100795.70;1733407;81;21533;-83
2022/08/12 00:46:56;;;;;;;2.08;1.35;;;;;;;28.02;39.92;100796.28;1733140;81;20964;-84
2022/08/12 00:49:24;;;;;;;1.47;1.10;;;;;;;28.02;39.95;100797.68;1733730;81;21089;-84
2022/08/12 00:52:10;;;;;;;2.72;1.40;;;;;;;28.03;39.97;100803.50;1749478;80;21059;-83
2022/08/12 00:54:46;;;;;;;1.72;1.30;;;;;;;28.03;39.97;100801.29;1749107;81;21056;-83
2022/08/12 00:57:29;;;;;;;1.50;1.07;;;;;;;28.03;39.95;100801.29;1749235;80;21678;-83
2022/08/12 00:59:58;;;;;;;1.90;1.37;;;;;;;28.02;39.95;100799.08;1749094;81;21023;-83
2022/08/12 01:02:30;;;;;;;2.12;1.52;;;;;;;28.03;39.94;100805.48;1749100;80;21066;-83
2022/08/12 01:13:29;;;;;;;1.50;1.25;;;;;;;28.02;39.95;100800.48;1743083;81;21401;-83
2022/08/12 01:16:02;;;;;;;3.15;1.12;;;;;;;28.02;39.96;100801.88;1737728;82;21094;-83
2022/08/12 01:18:31;;;;;;;1.67;1.10;;;;;;;28.04;39.96;100804.31;1737908;82;21573;-83
2022/08/12 01:21:16;;;;;;;3.77;1.35;;;;;;;28.03;39.96;100801.29;1715683;83;21075;-83
2022/08/12 01:24:08;;;;;;;2.15;1.22;;;;;;;28.02;39.95;100794.06;1765643;80;21138;-83
2022/08/12 01:26:35;;;;;;;1.90;1.25;;;;;;;28.02;39.95;100792.67;1731859;82;21099;-83
2022/08/12 01:29:02;;;;;;;1.50;1.10;;;;;;;28.02;39.93;100788.48;1768054;80;21006;-84
2022/08/12 01:31:28;;;;;;;2.08;1.40;;;;;;;28.02;39.95;100793.48;1794391;79;21013;-83
2022/08/12 01:34:02;;;;;;;1.65;1.30;;;;;;;28.02;39.96;100789.87;1794052;80;21026;-83
2022/08/12 01:36:43;;;;;;;2.10;1.27;;;;;;;28.02;39.97;100780.90;1794305;80;20998;-83
2022/08/12 01:39:09;;;;;;;1.87;1.30;;;;;;;28.02;39.95;100783.70;1794298;80;20991;-83
2022/08/12 01:41:39;;;;;;;3.00;1.57;;;;;;;28.03;39.95;100783.11;1794315;79;21014;-83
2022/08/12 01:44:06;;;;;;;;;;;;;;;28.02;39.96;100781.48;1797096;79;21545;-83
2022/08/12 01:46:57;;;;;;;1.75;1.10;;;;;;;28.01;39.95;100780.67;1794206;80;20430;-83
2022/08/12 01:50:08;;;;;;;1.62;1.27;;;;;;;28.01;39.98;100775.66;1794477;80;21306;-83
2022/08/12 01:52:43;;;;;;;1.60;1.10;;;;;;;28.01;39.97;100775.08;1794381;79;22818;-83
2022/08/12 01:55:10;;;;;;;1.72;1.20;;;;;;;27.99;39.94;100777.45;1787016;79;21056;-84
2022/08/12 01:57:43;;;;;;;2.47;1.20;;;;;;;27.99;39.96;100776.05;1794477;80;20991;-83
2022/08/12 02:00:13;;;;;;;1.92;1.32;;;;;;;28.00;39.97;100774.88;1794704;79;21022;-84
2022/08/12 02:03:05;;;;;;;;;;;;;;;28.00;39.96;100774.88;1797048;80;21838;-83
2022/08/12 02:12:05;;;;;;;1.72;1.30;;;;;;;27.98;39.98;100770.23;1765101;80;21043;-83
2022/08/12 02:15:11;;;;;;;2.30;1.40;;;;;;;27.97;39.99;100768.61;1778735;79;21015;-84
2022/08/12 02:18:11;;;;;;;1.85;1.32;;;;;;;27.97;39.99;100767.20;1780922;80;21534;-84
2022/08/12 02:20:55;;;;;;;1.50;1.12;;;;;;;27.97;40.00;100765.00;1780682;80;21576;-84
2022/08/12 02:23:26;;;;;;;2.80;1.45;;;;;;;27.96;40.01;100761.42;1765696;79;21043;-83
2022/08/12 02:25:58;;;;;;;3.17;1.22;;;;;;;27.96;40.04;100763.40;1780928;79;20984;-84
2022/08/12 02:28:24;;;;;;;1.98;1.30;;;;;;;27.96;40.04;100767.02;1781297;79;21570;-83
2022/08/12 02:30:50;;;;;;;2.02;1.30;;;;;;;27.96;40.04;100764.22;1781350;79;21364;-84
2022/08/12 02:33:17;;;;;;;2.05;1.20;;;;;;;27.96;40.06;100765.61;1781079;79;21067;-84
2022/08/12 02:35:44;;;;;;;2.65;1.42;;;;;;;27.96;40.06;100764.22;1761585;80;21079;-83
2022/08/12 02:38:11;;;;;;;1.70;1.20;;;;;;;27.98;40.07;100763.83;1781157;79;21087;-84
2022/08/12 02:40:47;;;;;;;2.12;1.30;;;;;;;27.98;40.07;100761.03;1780877;79;21045;-83
2022/08/12 02:43:45;;;;;;;2.25;1.55;;;;;;;27.98;40.05;100763.23;1782793;80;21533;-82
2022/08/12 02:46:13;;;;;;;2.00;1.40;;;;;;;27.99;40.06;100755.66;1783065;80;21146;-83
2022/08/12 02:48:52;;;;;;;2.20;1.45;;;;;;;27.99;40.04;100758.46;1783454;79;21166;-83
2022/08/12 02:51:22;;;;;;;1.77;1.30;;;;;;;27.98;40.05;100763.23;1767794;80;21110;-84
2022/08/12 02:53:57;;;;;;;1.50;1.22;;;;;;;27.98;40.03;100763.23;1783473;79;21047;-84
2022/08/12 02:56:29;;;;;;;1.42;1.02;;;;;;;27.98;40.05;100761.03;1783217;79;21522;-83
2022/08/12 02:58:57;;;;;;;1.75;1.17;;;;;;;27.98;40.03;100770.23;1783199;80;20974;-84
2022/08/12 03:01:34;;;;;;;2.12;1.40;;;;;;;27.99;40.04;100766.84;1783256;79;21035;-83
2022/08/12 03:04:04;;;;;;;1.40;1.12;;;;;;;27.97;40.05;100761.61;1782669;80;20941;-83
2022/08/12 03:06:45;;;;;;;2.08;1.40;;;;;;;27.98;40.06;100761.84;1783238;78;20991;-84
2022/08/12 03:09:14;;;;;;;1.92;1.32;;;;;;;27.98;40.04;100760.45;1782632;80;21478;-83
2022/08/12 03:11:58;;;;;;;2.87;1.10;;;;;;;27.99;40.04;100759.86;1782496;80;21040;-83
2022/08/12 03:14:27;;;;;;;1.90;1.30;;;;;;;27.98;40.04;100756.83;1781710;78;21059;-83
2022/08/12 03:17:18;;;;;;;2.00;1.30;;;;;;;27.97;40.04;100756.61;1782854;79;21059;-83
2022/08/12 03:19:45;;;;;;;3.20;1.70;;;;;;;27.99;40.06;100754.27;1782672;80;21633;-84
2022/08/12 03:22:13;;;;;;;2.02;1.30;;;;;;;27.98;40.03;100759.05;1783213;79;21938;-83
2022/08/12 03:24:43;;;;;;;3.15;1.30;;;;;;;27.98;40.05;100754.84;1782918;80;21432;-84
2022/08/12 03:27:12;;;;;;;1.82;1.32;;;;;;;27.97;40.06;100751.83;1783015;79;21012;-83
2022/08/12 03:29:40;;;;;;;1.85;1.20;;;;;;;27.97;40.06;100753.22;1783145;80;21040;-83
2022/08/12 03:32:07;;;;;;;1.72;1.15;;;;;;;27.98;40.07;100766.03;1782955;79;21530;-83
2022/08/12 03:34:34;;;;;;;3.00;1.40;;;;;;;27.99;40.06;100761.25;1782811;79;21496;-83
2022/08/12 03:37:06;;;;;;;3.95;1.57;;;;;;;27.98;40.06;100765.22;1783008;79;21179;-83
2022/08/12 03:42:32;;;;;;;1.80;1.42;;;;;;;27.98;40.06;100759.63;1782757;80;21511;-83
2022/08/12 04:01:58;;;;;;;2.20;1.30;;;;;;;27.96;40.07;100761.42;1751831;80;21522;-84
2022/08/12 04:04:36;;;;;;;2.03;1.33;;;;;;;27.95;40.07;100756.99;1751995;80;21067;-83
2022/08/12 04:07:08;;;;;;;3.12;1.60;;;;;;;27.96;40.10;100764.22;1752132;80;21035;-84
2022/08/12 04:09:37;;;;;;;2.00;1.30;;;;;;;27.95;40.07;100759.80;1751813;80;21035;-84
2022/08/12 04:14:56;;;;;;;1.60;1.45;;;;;;;27.96;40.11;100764.22;1751629;79;21048;-83
2022/08/12 04:17:23;;;;;;;2.87;1.60;;;;;;;27.96;40.11;100769.80;1752177;80;21031;-83
2022/08/12 04:19:49;;;;;;;2.27;1.40;;;;;;;27.96;40.10;100768.41;1752248;80;21126;-83
2022/08/12 04:22:28;;;;;;;1.80;1.20;;;;;;;27.97;40.12;100770.59;1751998;80;21099;-83
2022/08/12 04:24:53;;;;;;;1.67;1.20;;;;;;;27.96;40.12;100772.61;1752075;80;21051;-83
2022/08/12 04:27:19;;;;;;;1.92;1.40;;;;;;;27.97;40.11;100776.18;1751900;80;21094;-83
2022/08/12 04:29:45;;;;;;;2.83;1.32;;;;;;;27.98;40.12;100776.41;1752111;80;21029;-83
2022/08/12 04:32:12;;;;;;;1.90;1.20;;;;;;;27.97;40.12;100775.59;1752010;80;21068;-83
2022/08/12 04:34:39;;;;;;;1.87;1.40;;;;;;;27.98;40.14;100772.22;1751756;80;21025;-84
2022/08/12 04:37:05;;;;;;;1.90;1.32;;;;;;;27.99;40.13;100772.44;1712012;82;21497;-84
2022/08/12 04:39:32;;;;;;;2.20;1.40;;;;;;;27.98;40.14;100773.03;1741220;81;21119;-84
2022/08/12 04:41:59;;;;;;;1.55;1.32;;;;;;;27.98;40.13;100770.81;1740822;81;21029;-83
2022/08/12 04:44:26;;;;;;;3.27;1.37;;;;;;;27.98;40.16;100777.22;1741251;81;21104;-84
2022/08/12 04:46:54;;;;;;;2.00;1.50;;;;;;;28.00;40.15;100773.48;1741094;81;21486;-83
2022/08/12 04:49:23;;;;;;;2.27;1.25;;;;;;;27.98;40.13;100777.22;1740956;81;21077;-83
2022/08/12 04:51:50;;;;;;;1.80;1.37;;;;;;;27.99;40.15;100781.64;1741544;81;21561;-83
2022/08/12 04:54:17;;;;;;;1.60;1.30;;;;;;;28.00;40.16;100781.06;1741012;81;21022;-83
2022/08/12 04:56:44;;;;;;;2.30;1.35;;;;;;;28.00;40.15;100787.47;1740861;81;21076;-83
2022/08/12 04:59:10;;;;;;;3.50;1.50;;;;;;;28.00;40.11;100781.06;1741372;81;21524;-82
2022/08/12 05:01:37;;;;;;;1.85;1.40;;;;;;;27.99;40.09;100782.23;1712261;81;21010;-82
2022/08/12 05:04:04;;;;;;;2.92;1.32;;;;;;;27.98;40.06;100780.02;1740836;81;21077;-83
2022/08/12 05:06:30;;;;;;;2.27;1.22;;;;;;;27.98;40.07;100777.81;1741234;81;20994;-82
2022/08/12 05:09:00;;;;;;;4.35;1.70;;;;;;;27.96;40.02;100778.78;1742502;81;21049;-82
2022/08/12 05:11:26;;;;;;;5.35;2.08;;;;;;;27.95;39.99;100782.75;1771480;79;21518;-83
2022/08/12 05:13:59;;;;;;;3.33;1.60;;;;;;;27.93;39.88;100785.90;1771378;79;21119;-83
2022/08/12 05:16:25;;;;;;;3.45;2.00;;;;;;;27.92;39.83;100787.69;1751364;80;21161;-83
2022/08/12 05:18:52;;;;;;;3.15;1.67;;;;;;;27.87;39.83;100785.99;1780927;80;21095;-83
2022/08/12 05:21:19;;;;;;;3.58;1.80;;;;;;;27.86;39.81;100784.37;1781275;80;21637;-83
2022/08/12 05:23:45;;;;;;;3.05;1.90;;;;;;;27.87;39.77;100785.18;1780771;80;21099;-83
2022/08/12 05:26:12;;;;;;;5.25;2.00;;;;;;;27.86;39.77;100781.57;1780826;80;21020;-83
2022/08/12 05:28:39;;;;;;;7.53;1.92;;;;;;;27.85;39.69;100771.55;1781143;79;21053;-83
2022/08/12 05:31:06;;;;;;;4.45;2.10;;;;;;;27.84;39.66;100774.74;1781102;80;21451;-83
2022/08/12 05:33:39;;;;;;;3.40;2.27;;;;;;;27.83;39.64;100775.33;1780913;80;21076;-83
2022/08/12 05:36:11;;;;;;;6.15;2.47;;;;;;;27.83;39.63;100776.72;1781261;80;21096;-83
2022/08/12 05:38:56;;;;;;;5.80;1.98;;;;;;;27.82;39.60;100774.28;1781048;80;21546;-82
2022/08/12 05:41:33;;;;;;;4.53;2.00;;;;;;;27.81;39.61;100774.88;1781240;80;21133;-83
2022/08/12 05:44:09;;;;;;;5.35;2.58;;;;;;;27.80;39.53;100773.24;1780716;80;21091;-83
2022/08/12 05:46:36;;;;;;;5.00;2.30;;;;;;;27.81;39.43;100781.05;1781104;80;21087;-83
2022/08/12 05:49:03;;;;;;;6.15;2.15;;;;;;;27.76;39.40;100780.75;1780923;80;21013;-82
2022/08/12 05:51:33;;;;;;;3.98;2.30;;;;;;;27.76;39.36;100782.73;1781135;80;21111;-83
2022/08/12 05:53:59;;;;;;;6.33;2.00;;;;;;;27.74;39.24;100782.30;1781470;79;21317;-83
2022/08/12 05:56:31;;;;;;;3.58;2.12;;;;;;;27.73;39.20;100785.69;1780903;80;21024;-83
2022/08/12 05:58:59;;;;;;;3.45;2.67;;;;;;;27.70;39.12;100781.64;1781195;80;21558;-83
2022/08/12 06:01:27;;;;;;;3.65;2.10;;;;;;;27.69;39.05;100783.40;1779852;80;21016;-83
2022/08/12 06:03:54;;;;;;;9.50;2.62;;;;;;;27.67;39.04;100775.38;1753180;79;21064;-82
2022/08/12 06:06:20;;;;;;;3.75;2.30;;;;;;;27.67;39.04;100780.96;1798528;78;21104;-82
2022/08/12 06:08:52;;;;;;;6.47;2.00;;;;;;;27.68;39.05;100788.77;1750561;81;21079;-82
2022/08/12 06:11:17;;;;;;;;;;;;;;;27.69;39.16;100787.59;1791632;78;21083;-83
2022/08/12 06:13:44;;;;;;;4.47;2.10;;;;;;;27.68;39.21;100788.77;1786197;80;20330;-83
2022/08/12 06:16:13;;;;;;;5.15;2.45;;;;;;;27.67;39.19;100785.16;1752059;79;21033;-83
2022/08/12 06:18:40;;;;;;;3.65;2.00;;;;;;;27.66;39.17;100782.74;1743489;82;21176;-82
2022/08/12 06:21:15;;;;;;;4.85;2.15;;;;;;;27.65;39.13;100788.92;1750930;79;21100;-82
2022/08/12 06:23:42;;;;;;;4.78;2.05;;;;;;;27.62;39.06;100779.87;1754049;80;21182;-83
2022/08/12 06:26:10;;;;;;;4.40;2.10;;;;;;;27.62;39.08;100791.05;1751489;79;21021;-82
2022/08/12 06:28:38;;;;;;;6.15;2.08;;;;;;;27.63;38.95;100787.64;1775274;79;20990;-83
2022/08/12 06:31:07;;;;;;;3.05;2.00;;;;;;;27.61;38.96;100784.42;1797991;79;22492;-82
2022/08/12 06:33:34;;;;;;;7.28;2.08;;;;;;;27.61;38.91;100787.22;1803778;79;21036;-83
2022/08/12 06:36:01;;;;;;;7.37;2.10;;;;;;;27.60;38.85;100789.78;1720943;82;21089;-84
2022/08/12 06:38:29;;;;;;;3.12;1.95;;;;;;;27.59;38.77;100787.58;1777524;79;21435;-82
2022/08/12 06:43:43;;;;;;;2.22;1.90;;;;;;;27.57;38.62;100790.52;1803285;79;21485;-83
2022/08/12 06:46:11;;;;;;;6.10;2.15;;;;;;;27.56;38.57;100781.33;1762913;79;21080;-82
2022/08/12 06:48:41;;;;;;;7.47;2.20;;;;;;;27.55;38.48;100784.48;1743025;81;21475;-83
2022/08/12 06:51:07;;;;;;;6.37;2.25;;;;;;;27.54;38.51;100781.48;1742951;82;21077;-82
2022/08/12 06:53:34;;;;;;;4.58;2.00;;;;;;;27.57;38.41;100782.14;1743548;81;21123;-82
2022/08/12 06:56:00;;;;;;;6.47;1.95;;;;;;;27.56;38.42;100770.73;1697586;83;21165;-82
2022/08/12 06:58:28;;;;;;;5.60;2.40;;;;;;;27.57;38.36;100773.76;1760666;80;21171;-82
2022/08/12 07:00:56;;;;;;;2.80;1.92;;;;;;;27.58;38.39;100771.97;1774584;80;21127;-82
2022/08/12 07:03:27;;;;;;;4.08;1.87;;;;;;;27.59;38.40;100763.82;1770674;80;21096;-82
2022/08/12 07:05:58;;;;;;;5.30;2.08;;;;;;;27.61;38.44;100769.05;1772110;80;21092;-83
2022/08/12 07:08:32;;;;;;;5.65;2.30;;;;;;;27.63;38.39;100766.69;1754859;80;21105;-84
2022/08/12 07:11:01;;;;;;;10.80;2.47;;;;;;;27.64;38.38;100773.31;1743727;82;21107;-82
2022/08/12 07:13:37;;;;;;;3.20;2.20;;;;;;;27.64;38.32;100766.33;1744079;80;21032;-82
2022/08/12 07:16:05;;;;;;;3.50;1.98;;;;;;;27.65;38.30;100767.95;1739908;79;21083;-82
2022/08/12 07:18:32;;;;;;;7.30;1.90;;;;;;;27.67;38.26;100763.38;1743330;79;21024;-81
2022/08/12 07:21:01;;;;;;;4.97;1.90;;;;;;;27.67;38.18;100760.00;1739365;81;22069;-82
2022/08/12 07:23:27;;;;;;;3.85;1.92;;;;;;;27.69;38.10;100768.02;1755419;81;21547;-82
2022/08/12 07:25:55;;;;;;;6.78;1.90;;;;;;;27.69;38.11;100762.44;1777679;79;20993;-82
2022/08/12 07:28:22;;;;;;;6.37;1.80;;;;;;;27.69;38.13;100759.05;1790724;78;21003;-82
2022/08/12 07:30:51;;;;;;;4.80;2.15;;;;;;;27.69;38.05;100762.44;1792124;78;21535;-82
2022/08/12 07:33:21;;;;;;;5.92;1.87;;;;;;;27.69;38.12;100756.26;1777222;79;21328;-82
2022/08/12 07:35:48;;;;;;;3.40;1.93;;;;;;;27.70;38.06;100761.27;1768303;80;21051;-82
2022/08/12 07:38:33;;;;;;;5.92;1.92;;;;;;;27.73;38.04;100762.50;1779178;79;21006;-82
2022/08/12 07:41:10;;;;;;;4.47;1.95;;;;;;;27.73;37.99;100761.92;1779360;79;21009;-82
2022/08/12 07:43:55;;;;;;;3.83;1.85;;;;;;;27.73;37.92;100754.94;1770176;79;21024;-82
2022/08/12 07:46:25;;;;;;;4.45;2.17;;;;;;;27.71;37.74;100760.06;1795115;79;21536;-82
2022/08/12 07:48:53;;;;;;;;;;;;;;;27.69;37.60;100758.24;1721639;82;21106;-83
2022/08/12 07:51:20;;;;;;;6.05;1.98;;;;;;;27.68;37.63;100759.41;1792460;79;20446;-83
2022/08/12 07:53:47;;;;;;;4.67;2.00;;;;;;;27.68;37.64;100759.41;1786200;79;20997;-82
2022/08/12 07:56:14;;;;;;;3.58;1.92;;;;;;;27.68;37.50;100766.40;1792972;79;21096;-83
2022/08/12 07:58:41;;;;;;;3.95;1.80;;;;;;;27.68;37.51;100760.22;1780234;78;21156;-82
2022/08/12 08:01:10;;;;;;;3.83;2.00;;;;;;;27.69;37.42;100763.25;1792251;79;20966;-82
2022/08/12 08:03:37;;;;;;;6.08;1.50;;;;;;;27.71;37.40;100758.08;1781174;79;21491;-82
2022/08/12 08:06:09;;;;;;;4.87;1.87;;;;;;;27.72;37.22;100757.50;1772936;79;21064;-82
2022/08/12 08:08:32;;;;;;;3.35;1.55;;;;;;;27.73;37.33;100758.31;1788915;79;21034;-81
2022/08/12 08:13:45;;;;;;;3.85;1.90;;;;;;;27.74;37.25;100756.56;1775188;79;21001;-83
2022/08/12 08:16:14;;;;;;;4.20;2.20;;;;;;;27.74;37.27;100766.34;1781876;79;21036;-83
2022/08/12 08:18:40;;;;;;;4.50;2.22;;;;;;;27.75;37.33;100765.76;1787594;79;20999;-82
2022/08/12 08:21:07;;;;;;;4.87;2.05;;;;;;;27.76;37.31;100768.16;1774333;79;21005;-83
2022/08/12 08:26:21;;;;;;;5.12;2.30;;;;;;;27.78;37.20;100763.03;1766939;79;20967;-83
2022/08/12 08:28:49;;;;;;;5.12;2.00;;;;;;;27.80;37.24;100762.64;1790309;79;21811;-83
2022/08/12 08:31:15;;;;;;;2.58;1.90;;;;;;;27.81;37.25;100759.49;1796408;79;20991;-83
2022/08/12 08:33:42;;;;;;;3.40;2.02;;;;;;;27.81;37.21;100748.31;1784371;79;21005;-82
2022/08/12 08:36:08;;;;;;;6.45;2.90;;;;;;;27.82;37.19;100746.33;1775054;79;21467;-82
2022/08/12 08:38:35;;;;;;;4.37;2.08;;;;;;;27.81;37.13;100739.92;1764987;80;21072;-83
2022/08/12 08:43:48;;;;;;;4.92;2.40;;;;;;;27.84;37.24;100738.39;1781680;79;21536;-83
2022/08/12 08:46:14;;;;;;;6.83;2.80;;;;;;;27.85;37.25;100739.41;1773623;79;21551;-83
2022/08/12 08:48:41;;;;;;;6.22;2.50;;;;;;;27.86;37.33;100738.81;1774320;79;22147;-83
2022/08/12 08:51:07;;;;;;;3.58;1.98;;;;;;;27.87;37.33;100728.67;1777574;79;21041;-83
2022/08/12 08:53:34;;;;;;;4.62;2.02;;;;;;;27.88;37.29;100733.06;1772888;79;21057;-84
2022/08/12 08:56:01;;;;;;;5.90;2.20;;;;;;;27.88;37.25;100721.87;1791505;79;21057;-85
2022/08/12 08:58:33;;;;;;;4.35;2.37;;;;;;;27.92;37.20;100723.38;1764693;80;21072;-83
2022/08/12 09:00:59;;;;;;;3.25;2.02;;;;;;;27.94;37.15;100723.80;1770209;79;21148;-83
2022/08/12 09:03:26;;;;;;;3.00;2.30;;;;;;;27.97;37.19;100725.84;1776107;79;21060;-83
2022/08/12 09:05:53;;;;;;;7.50;2.10;;;;;;;27.97;37.22;100721.65;1785600;79;20947;-83
2022/08/12 09:08:21;;;;;;;4.47;2.47;;;;;;;27.97;37.15;100716.87;1764563;79;21480;-83
2022/08/12 09:10:48;;;;;;;6.55;2.30;;;;;;;27.98;37.03;100708.70;1769050;79;21057;-82
2022/08/12 09:13:27;;;;;;;5.42;1.95;;;;;;;27.99;37.02;100713.72;1765164;79;21007;-83
2022/08/12 09:15:54;;;;;;;3.80;2.22;;;;;;;28.00;36.94;100705.55;1757144;80;21142;-83
2022/08/12 09:18:21;;;;;;;3.83;1.90;;;;;;;28.01;36.85;100702.95;1735111;81;21530;-84
2022/08/12 09:20:49;;;;;;;5.75;2.17;;;;;;;28.00;36.87;100690.98;1760464;79;22348;-82
2022/08/12 09:23:21;;;;;;;4.17;1.77;;;;;;;28.02;36.80;100697.58;1778107;79;21547;-84
2022/08/12 09:25:48;;;;;;;7.50;2.10;;;;;;;28.02;36.79;100691.41;1761030;80;21984;-84
2022/08/12 09:28:15;;;;;;;4.83;2.08;;;;;;;28.04;36.73;100691.05;1749906;80;21020;-84
2022/08/12 09:30:48;;;;;;;4.40;2.45;;;;;;;28.04;36.66;100691.86;1773193;80;21076;-84
2022/08/12 09:33:15;;;;;;;4.33;2.55;;;;;;;28.05;36.59;100694.06;1773945;80;21036;-84
2022/08/12 09:35:43;;;;;;;3.65;1.82;;;;;;;28.06;36.60;100692.86;1773772;80;21131;-83
2022/08/12 09:38:16;;;;;;;3.98;1.80;;;;;;;28.06;36.71;100689.48;1760388;79;21095;-84
2022/08/12 09:40:44;;;;;;;6.08;1.80;;;;;;;28.07;36.73;100693.90;1746839;80;21076;-83
2022/08/12 09:45:56;;;;;;;2.77;1.98;;;;;;;28.09;36.83;100690.74;1775136;79;21025;-84
2022/08/12 09:48:22;;;;;;;3.70;2.08;;;;;;;28.10;36.83;100683.98;1785097;79;21130;-83
2022/08/12 09:50:49;;;;;;;5.08;1.70;;;;;;;28.11;36.85;100680.01;1743152;81;21072;-84
2022/08/12 09:53:22;;;;;;;3.37;2.10;;;;;;;28.12;36.79;100683.03;1774175;79;21005;-84
2022/08/12 09:55:47;;;;;;;3.72;1.72;;;;;;;28.13;36.66;100679.84;1771934;79;21558;-85
2022/08/12 09:58:16;;;;;;;3.85;1.92;;;;;;;28.14;36.60;100671.67;1758400;79;21073;-84
2022/08/12 10:00:48;;;;;;;2.55;2.10;;;;;;;28.14;36.54;100670.27;1744380;80;21055;-84
2022/08/12 10:03:15;;;;;;;3.20;2.10;;;;;;;28.15;36.53;100664.91;1743235;80;21147;-84
2022/08/12 10:05:46;;;;;;;11.00;2.12;;;;;;;28.17;36.48;100655.34;1722695;79;21087;-83
2022/08/12 10:08:15;;;;;;;4.87;2.40;;;;;;;28.18;36.44;100659.14;1755408;80;21057;-84
2022/08/12 10:13:42;;;;;;;3.50;2.17;;;;;;;28.20;36.49;100640.02;1738814;80;21163;-84
2022/08/12 10:16:11;;;;;;;;;;;;;;;28.21;36.47;100632.43;1769734;78;21506;-84
2022/08/12 10:18:41;;;;;;;3.58;2.10;;;;;;;28.20;36.45;100626.61;1788923;78;20385;-84
2022/08/12 10:21:16;;;;;;;2.37;2.03;;;;;;;28.20;36.41;100627.42;1757778;80;21825;-84
2022/08/12 10:23:45;;;;;;;3.20;1.87;;;;;;;28.20;36.50;100626.02;1777827;78;21279;-84
2022/08/12 10:31:53;;;;;;;5.15;2.20;;;;;;;28.23;36.44;100615.48;1761042;79;21047;-84
2022/08/12 10:34:26;;;;;;;3.27;1.80;;;;;;;28.24;36.57;100615.70;1768483;79;21020;-84
2022/08/12 10:36:57;;;;;;;2.20;1.87;;;;;;;28.25;36.73;100619.31;1771815;80;21334;-84
2022/08/12 10:39:32;;;;;;;4.65;1.90;;;;;;;28.24;36.85;100623.28;1772409;79;21528;-84
2022/08/12 10:44:59;;;;;;;2.33;1.67;;;;;;;28.24;37.02;100621.89;1748728;82;21028;-84
2022/08/12 10:47:27;;;;;;;2.95;1.80;;;;;;;28.24;36.87;100612.91;1765601;80;21151;-84
2022/08/12 10:49:54;;;;;;;3.27;2.00;;;;;;;28.24;36.70;100607.89;1780258;79;20961;-84
2022/08/12 10:52:26;;;;;;;3.20;2.10;;;;;;;28.26;36.54;100611.14;1779991;78;21618;-83
2022/08/12 10:54:50;;;;;;;4.70;2.00;;;;;;;28.26;36.44;100613.36;1803281;78;21244;-84
2022/08/12 10:57:26;;;;;;;5.35;2.20;;;;;;;28.28;36.42;100610.16;1757826;80;21039;-85
2022/08/12 10:59:58;;;;;;;3.30;2.05;;;;;;;28.29;36.29;100604.20;1769457;80;21079;-84
2022/08/12 11:02:26;;;;;;;4.67;2.10;;;;;;;28.30;36.22;100597.43;1769172;79;21071;-84
2022/08/12 11:04:58;;;;;;;2.83;2.00;;;;;;;28.31;36.16;100594.83;1784401;78;21051;-84
2022/08/12 11:07:23;;;;;;;2.58;2.00;;;;;;;28.31;36.22;100592.03;1770612;78;21111;-85
2022/08/12 11:09:50;;;;;;;4.15;2.00;;;;;;;28.31;36.31;100589.81;1785117;80;21010;-84
2022/08/12 11:12:17;;;;;;;4.30;2.30;;;;;;;28.32;36.24;100591.44;1768295;79;21584;-85
2022/08/12 11:14:43;;;;;;;3.77;2.02;;;;;;;28.33;36.25;100591.66;1786537;80;21589;-84
2022/08/12 11:17:14;;;;;;;4.20;2.20;;;;;;;28.33;36.25;100594.46;1752155;80;21012;-84
2022/08/12 11:19:42;;;;;;;2.67;2.10;;;;;;;28.33;36.23;100590.27;1751168;80;21860;-84
2022/08/12 11:22:10;;;;;;;3.35;1.80;;;;;;;28.34;36.11;100589.09;1757403;80;21167;-84
2022/08/12 11:24:36;;;;;;;3.55;2.30;;;;;;;28.34;36.07;100589.90;1743619;82;21074;-83
2022/08/12 11:27:05;;;;;;;2.50;1.87;;;;;;;28.34;36.13;100585.70;1745406;80;21313;-84
2022/08/12 11:29:32;;;;;;;2.95;2.35;;;;;;;28.34;36.07;100584.30;1762496;79;21072;-83
2022/08/12 11:31:59;;;;;;;2.85;1.77;;;;;;;28.36;36.00;100585.31;1770830;80;21146;-84
2022/08/12 11:34:25;;;;;;;2.70;2.00;;;;;;;28.35;36.18;100582.28;1772824;80;21562;-83
2022/08/12 11:36:55;;;;;;;2.98;1.77;;;;;;;28.36;36.35;100579.13;1750659;79;21021;-84
2022/08/12 11:39:22;;;;;;;4.10;2.00;;;;;;;28.36;36.52;100582.51;1743763;80;21504;-85
2022/08/12 11:41:48;;;;;;;3.27;2.10;;;;;;;28.35;36.49;100588.69;1746562;80;21055;-84
2022/08/12 11:44:15;;;;;;;2.75;1.90;;;;;;;28.36;36.49;100584.72;1744256;80;21064;-84
2022/08/12 11:46:42;;;;;;;3.50;1.80;;;;;;;28.36;36.57;100580.52;1759153;79;21063;-84
2022/08/12 11:49:08;;;;;;;3.25;1.98;;;;;;;28.36;36.37;100574.92;1757079;79;21060;-83
2022/08/12 11:51:35;;;;;;;3.55;1.90;;;;;;;28.38;36.19;100568.96;1759139;80;21527;-83
2022/08/12 11:54:02;;;;;;;2.77;1.92;;;;;;;28.38;36.40;100573.16;1774378;80;21511;-83
2022/08/12 11:56:35;;;;;;;2.50;1.70;;;;;;;28.39;36.51;100569.19;1756027;80;21098;-83
2022/08/12 11:59:01;;;;;;;4.17;1.85;;;;;;;28.39;36.70;100563.59;1743621;82;21072;-84
2022/08/12 12:01:28;;;;;;;4.00;2.02;;;;;;;28.38;36.87;100562.78;1752289;80;21056;-83
2022/08/12 12:03:54;;;;;;;2.55;1.85;;;;;;;28.39;36.75;100562.19;1740718;80;21606;-84
2022/08/12 12:06:27;;;;;;;2.58;2.12;;;;;;;28.39;36.55;100563.59;1748935;80;21111;-84
2022/08/12 12:08:53;;;;;;;3.45;1.92;;;;;;;28.39;36.48;100557.99;1753877;79;21130;-83
2022/08/12 12:11:21;;;;;;;2.77;2.05;;;;;;;28.39;36.30;100550.38;1772033;80;21016;-83
2022/08/12 12:13:48;;;;;;;2.62;1.77;;;;;;;28.41;36.26;100552.81;1773799;79;21644;-83
2022/08/12 12:16:20;;;;;;;3.37;2.15;;;;;;;28.40;36.18;100545.00;1749742;80;21182;-83
2022/08/12 12:18:46;;;;;;;2.72;1.92;;;;;;;28.41;36.19;100545.23;1769347;79;21662;-84
2022/08/12 12:21:14;;;;;;;3.95;1.80;;;;;;;28.42;36.20;100544.64;1808986;78;20969;-83
2022/08/12 12:23:40;;;;;;;5.05;2.25;;;;;;;28.41;36.25;100546.63;1767826;80;21044;-84
2022/08/12 12:26:07;;;;;;;4.28;2.17;;;;;;;28.43;36.01;100547.04;1743155;80;21103;-84
2022/08/12 12:28:41;;;;;;;3.98;2.02;;;;;;;28.44;35.80;100536.66;1772875;80;21028;-83
2022/08/12 12:31:07;;;;;;;2.50;1.80;;;;;;;28.43;35.63;100535.84;1772921;80;21067;-83
2022/08/12 12:33:34;;;;;;;2.33;1.82;;;;;;;28.45;35.54;100539.09;1772787;79;21130;-84
2022/08/12 12:36:07;;;;;;;2.52;1.80;;;;;;;28.45;35.49;100536.88;1772972;79;21609;-83
2022/08/12 12:38:34;;;;;;;2.95;2.00;;;;;;;28.47;35.40;100533.13;1773133;80;21167;-84
2022/08/12 12:41:01;;;;;;;4.60;2.15;;;;;;;28.46;35.31;100536.52;1772787;79;21044;-84
2022/08/12 12:43:28;;;;;;;4.10;2.25;;;;;;;28.46;35.40;100539.31;1773702;80;21083;-84
2022/08/12 12:45:55;;;;;;;2.22;1.95;;;;;;;28.45;35.38;100536.30;1773900;80;21956;-83
2022/08/12 12:48:22;;;;;;;7.37;2.08;;;;;;;28.45;35.38;100532.09;1773679;80;21044;-84
2022/08/12 12:53:39;;;;;;;4.17;2.00;;;;;;;28.42;35.42;100530.06;1774013;80;21067;-85
2022/08/12 12:56:09;;;;;;;2.42;1.80;;;;;;;28.42;35.50;100525.86;1773797;80;21040;-83
2022/08/12 12:58:34;;;;;;;3.22;1.80;;;;;;;28.42;35.79;100523.06;1773700;79;21036;-83
2022/08/12 13:01:01;;;;;;;3.87;2.00;;;;;;;28.42;36.03;100522.25;1755481;80;21146;-83
2022/08/12 13:03:27;;;;;;;3.67;2.00;;;;;;;28.41;36.05;100515.03;1793822;78;21091;-84
2022/08/12 13:05:55;;;;;;;3.15;1.87;;;;;;;28.41;35.91;100520.63;1789566;79;21804;-83
2022/08/12 13:08:25;;;;;;;3.47;2.10;;;;;;;28.41;35.81;100520.63;1802950;78;21057;-83
2022/08/12 13:10:54;;;;;;;3.85;1.82;;;;;;;28.41;35.67;100517.24;1726924;81;21139;-85
2022/08/12 13:13:21;;;;;;;3.30;1.90;;;;;;;28.41;35.58;100510.84;1720616;82;21008;-84
2022/08/12 13:15:48;;;;;;;3.42;1.80;;;;;;;28.41;35.56;100508.04;1747186;80;21036;-83
2022/08/12 13:18:18;;;;;;;3.47;2.10;;;;;;;28.41;35.45;100504.66;1757566;81;21064;-83
2022/08/12 13:20:45;;;;;;;2.75;1.98;;;;;;;28.42;35.48;100499.87;1758194;81;21017;-84
2022/08/12 13:23:12;;;;;;;3.87;1.67;;;;;;;28.43;35.59;100500.87;1758076;81;21351;-84
2022/08/12 13:25:42;;;;;;;2.42;1.55;;;;;;;28.42;35.93;100495.08;1758241;81;21547;-83
2022/08/12 13:28:09;;;;;;;2.07;1.73;;;;;;;28.42;36.26;100496.48;1758261;81;21131;-84